Raynham Center, Massachusetts
Current Conditions -  °F | °C
As of 11:16 PM on Tuesday 27 Jan 2015 (Local Time) from KTAN Reporting Station
Haze Haze  
Wind Chill:   Ceiling: 3400
Heat Index: 15°   Visibility: 3mi
Dew Point:   Wind: 10mph
Humidity: 77%   Direction: 310°NW
Pressure: 29.64"   Gusts: 17mph
Location:  41.93°N, 71.04°W
Report Text: KTAN 280416Z AUTO 31009G15KT 3SM HZ OVC034 M09/M13 A2964 RMK AO2 T10941128 PWINO FZRANO $
Loading
Personal Weather Stations






























Interactive Weather Map New forecast layout! Learn more

10-Day Weather Forecast

Advertisements
Track Severe Weather on mobile